Time;durP1;ratioP1;P1;durP2;ratioP2;P2;SDS_P1;SDS_P2;PMS_P1;PMS_P2;Temp;Humidity;BMP_temperature;BMP_pressure;BME280_temperature;BME280_humidity;BME280_pressure;Samples;Min_cycle;Max_cycle;Signal;HPM_P1;HPM_P2
2023/08/31 00:00:41;;;;;;;;;;;;;;;20.47;67.94;95721.56;5073153;28;19999;-64
2023/08/31 00:03:08;;;;;;;;;;;;;;;20.42;68.08;95725.47;5073058;28;19931;-65
2023/08/31 00:05:40;;;;;;;;;;;;;;;20.44;67.47;95728.00;5073043;28;20011;-64
2023/08/31 00:08:08;;;;;;;;;;;;;;;20.40;67.38;95732.72;5072953;28;19931;-64
2023/08/31 00:10:36;;;;;;;;;;;;;;;20.33;67.84;95728.97;5073102;28;19968;-65
2023/08/31 00:13:03;;;;;;;;;;;;;;;20.22;68.34;95735.22;5076722;28;20019;-65
2023/08/31 00:15:32;;;;;;;;;;;;;;;20.16;68.55;95730.47;5076936;28;19928;-65
2023/08/31 00:17:59;;;;;;;;;;;;;;;20.08;68.82;95729.34;5076659;28;20015;-64
2023/08/31 00:20:26;;;;;;;;;;;;;;;19.95;69.18;95729.59;5076449;28;20270;-64
2023/08/31 00:22:53;;;;;;;;;;;;;;;19.93;69.42;95728.06;5076559;28;19925;-64
2023/08/31 00:25:21;;;;;;;;;;;;;;;19.97;69.07;95726.78;5076661;28;19926;-64
2023/08/31 00:27:48;;;;;;;;;;;;;;;20.05;68.87;95732.28;5076477;28;19963;-64
2023/08/31 00:30:15;;;;;;;;;;;;;;;20.06;69.03;95733.13;5076420;28;19928;-64
2023/08/31 00:32:42;;;;;;;;;;;;;;;20.12;69.08;95737.88;5076417;28;19924;-64
2023/08/31 00:35:09;;;;;;;;;;;;;;;20.18;68.83;95747.97;5076516;28;19924;-65
2023/08/31 00:37:36;;;;;;;;;;;;;;;20.23;68.50;95758.16;5076493;28;19925;-64
2023/08/31 00:40:04;;;;;;;;;;;;;;;20.29;68.33;95752.28;5076400;28;19924;-64
2023/08/31 00:42:32;;;;;;;;;;;;;;;20.29;67.77;95743.50;5076057;28;19924;-64
2023/08/31 00:44:59;;;;;;;;;;;;;;;20.33;67.42;95751.06;5076218;28;19929;-64
2023/08/31 00:47:26;;;;;;;;;;;;;;;20.34;67.38;95754.53;5076431;28;19924;-64
2023/08/31 00:49:53;;;;;;;;;;;;;;;20.30;67.71;95750.47;5076179;28;19931;-64
2023/08/31 00:52:20;;;;;;;;;;;;;;;20.27;67.40;95754.25;5076045;28;19932;-64
2023/08/31 00:54:48;;;;;;;;;;;;;;;20.19;67.61;95756.75;5076224;28;19968;-65
2023/08/31 00:57:14;;;;;;;;;;;;;;;20.22;67.95;95759.13;5076181;28;19924;-64
2023/08/31 00:59:42;;;;;;;;;;;;;;;20.13;67.62;95760.78;5075835;28;20441;-64
2023/08/31 01:02:16;;;;;;;;;;;;;;;20.02;68.01;95766.22;5075886;28;20340;-64
2023/08/31 01:04:46;;;;;;;;;;;;;;;20.01;68.00;95768.03;5075786;28;20385;-65
2023/08/31 01:07:21;;;;;;;;;;;;;;;19.94;68.31;95766.88;5075794;28;19924;-64
2023/08/31 01:09:51;;;;;;;;;;;;;;;19.91;68.43;95768.00;5075744;28;19928;-64
2023/08/31 01:12:29;;;;;;;;;;;;;;;19.92;68.38;95767.00;5075483;28;19959;-64
2023/08/31 01:15:02;;;;;;;;;;;;;;;19.87;68.42;95765.75;5075790;28;19932;-64
2023/08/31 01:17:30;;;;;;;;;;;;;;;19.86;68.28;95766.72;5075690;28;20297;-64
2023/08/31 01:19:59;;;;;;;;;;;;;;;19.85;68.31;95771.19;5075820;28;19932;-65
2023/08/31 01:22:30;;;;;;;;;;;;;;;19.79;68.19;95771.72;5075153;28;19925;-64
2023/08/31 01:25:01;;;;;;;;;;;;;;;19.76;68.40;95772.81;5075472;28;20289;-64
2023/08/31 01:27:28;;;;;;;;;;;;;;;19.75;68.70;95775.63;5075449;28;19925;-64
2023/08/31 01:29:55;;;;;;;;;;;;;;;19.65;69.03;95779.06;5075906;28;19964;-64
2023/08/31 01:32:22;;;;;;;;;;;;;;;19.65;69.09;95780.88;5075417;28;19924;-64
2023/08/31 01:34:51;;;;;;;;;;;;;;;19.69;68.77;95784.97;5075286;28;19932;-64
2023/08/31 01:37:22;;;;;;;;;;;;;;;19.65;68.75;95784.38;5075259;28;19970;-64
2023/08/31 01:39:50;;;;;;;;;;;;;;;19.52;69.06;95781.09;5075172;28;20386;-64
2023/08/31 01:42:18;;;;;;;;;;;;;;;19.50;68.96;95785.72;5075159;28;20275;-64
2023/08/31 01:44:49;;;;;;;;;;;;;;;19.51;69.26;95790.84;5075040;28;19924;-64
2023/08/31 01:47:16;;;;;;;;;;;;;;;19.44;69.29;95795.88;5075009;28;19979;-64
2023/08/31 01:49:43;;;;;;;;;;;;;;;19.40;69.77;95799.75;5075025;28;19925;-64
2023/08/31 01:52:10;;;;;;;;;;;;;;;19.32;69.88;95803.06;5074911;28;19928;-64
2023/08/31 01:54:37;;;;;;;;;;;;;;;19.28;70.00;95803.44;5074818;28;20381;-63
2023/08/31 01:57:04;;;;;;;;;;;;;;;19.26;70.09;95805.41;5074841;28;19972;-64
2023/08/31 01:59:32;;;;;;;;;;;;;;;19.17;70.25;95810.50;5074917;28;19929;-64
2023/08/31 02:01:59;;;;;;;;;;;;;;;19.15;69.97;95820.38;5075058;28;20263;-64
2023/08/31 02:04:25;;;;;;;;;;;;;;;19.16;70.02;95813.28;5074584;28;19930;-65
2023/08/31 02:06:52;;;;;;;;;;;;;;;19.13;69.81;95816.19;5074529;28;20373;-64
2023/08/31 02:09:19;;;;;;;;;;;;;;;19.15;69.91;95816.91;5074820;28;19924;-63
2023/08/31 02:11:46;;;;;;;;;;;;;;;19.15;69.71;95823.03;5074477;28;19925;-64
2023/08/31 02:14:13;;;;;;;;;;;;;;;19.14;69.84;95834.63;5074424;28;20339;-64
2023/08/31 02:16:41;;;;;;;;;;;;;;;19.12;69.86;95822.47;5074471;28;19978;-63
2023/08/31 02:19:07;;;;;;;;;;;;;;;19.07;69.76;95828.13;5074437;28;19925;-64
2023/08/31 02:21:34;;;;;;;;;;;;;;;19.03;69.91;95824.06;5074525;28;19947;-64
2023/08/31 02:24:01;;;;;;;;;;;;;;;18.97;69.83;95825.41;5074366;28;19925;-63
2023/08/31 02:26:27;;;;;;;;;;;;;;;18.96;69.66;95830.84;5074193;28;19924;-63
2023/08/31 02:28:54;;;;;;;;;;;;;;;18.99;69.59;95822.63;5074094;28;20019;-64
2023/08/31 02:31:20;;;;;;;;;;;;;;;18.96;69.77;95829.00;5074307;28;19929;-64
2023/08/31 02:33:49;;;;;;;;;;;;;;;18.93;69.77;95827.47;5073461;28;20034;-64
2023/08/31 02:36:16;;;;;;;;;;;;;;;18.90;69.88;95824.25;5074152;28;19932;-64
2023/08/31 02:38:43;;;;;;;;;;;;;;;18.87;69.89;95822.66;5074028;28;19928;-64
2023/08/31 02:41:09;;;;;;;;;;;;;;;18.86;69.34;95828.94;5073993;28;20010;-64
2023/08/31 02:43:36;;;;;;;;;;;;;;;18.81;69.86;95828.47;5073944;28;19925;-64
2023/08/31 02:46:04;;;;;;;;;;;;;;;18.75;70.30;95832.47;5073993;28;19952;-64
2023/08/31 02:48:31;;;;;;;;;;;;;;;18.64;70.61;95827.22;5073947;28;19925;-63
2023/08/31 02:51:00;;;;;;;;;;;;;;;18.57;70.43;95832.19;5073781;28;20402;-65
2023/08/31 02:53:28;;;;;;;;;;;;;;;18.54;70.54;95822.69;5073798;28;19924;-63
2023/08/31 02:55:54;;;;;;;;;;;;;;;18.54;70.55;95829.78;5073889;28;19925;-63
2023/08/31 02:58:21;;;;;;;;;;;;;;;18.56;70.16;95831.34;5073823;28;19928;-63
2023/08/31 03:00:48;;;;;;;;;;;;;;;18.56;69.96;95839.31;5073707;28;20015;-64
2023/08/31 03:03:15;;;;;;;;;;;;;;;18.56;70.01;95831.34;5073754;28;19924;-63
2023/08/31 03:05:42;;;;;;;;;;;;;;;18.51;70.82;95832.72;5073657;28;19924;-64
2023/08/31 03:08:10;;;;;;;;;;;;;;;18.43;71.21;95828.03;5073889;28;19924;-64
2023/08/31 03:10:37;;;;;;;;;;;;;;;18.48;70.57;95830.31;5073579;28;19953;-64
2023/08/31 03:13:04;;;;;;;;;;;;;;;18.39;71.02;95830.06;5073302;28;20250;-64
2023/08/31 03:15:31;;;;;;;;;;;;;;;18.40;71.29;95831.78;5073536;28;19933;-63
2023/08/31 03:17:57;;;;;;;;;;;;;;;18.37;70.93;95824.06;5073511;28;20010;-63
2023/08/31 03:20:24;;;;;;;;;;;;;;;18.38;70.79;95832.84;5073418;28;19924;-64
2023/08/31 03:22:51;;;;;;;;;;;;;;;18.35;70.87;95838.38;5073461;28;20008;-64
2023/08/31 03:25:19;;;;;;;;;;;;;;;18.25;71.85;95843.59;5073487;28;19924;-64
2023/08/31 03:27:46;;;;;;;;;;;;;;;18.18;72.63;95844.06;5073380;28;20381;-64
2023/08/31 03:30:13;;;;;;;;;;;;;;;18.25;72.69;95846.22;5073561;28;19924;-65
2023/08/31 03:32:40;;;;;;;;;;;;;;;18.26;71.42;95854.06;5073571;28;19928;-64
2023/08/31 03:35:07;;;;;;;;;;;;;;;18.24;71.31;95852.50;5073437;28;19924;-63
2023/08/31 03:37:34;;;;;;;;;;;;;;;18.17;72.86;95854.78;5073275;28;20445;-64
2023/08/31 03:40:00;;;;;;;;;;;;;;;18.16;72.52;95853.09;5073188;28;20393;-64
2023/08/31 03:42:29;;;;;;;;;;;;;;;18.11;72.26;95848.19;5073292;28;20405;-63
2023/08/31 03:44:55;;;;;;;;;;;;;;;18.03;72.32;95856.69;5073803;28;20431;-63
2023/08/31 03:47:22;;;;;;;;;;;;;;;18.04;72.23;95860.19;5077373;28;19928;-62
2023/08/31 03:49:49;;;;;;;;;;;;;;;18.02;72.02;95855.00;5077462;28;19925;-63
2023/08/31 03:52:16;;;;;;;;;;;;;;;18.04;72.17;95849.59;5077140;28;19938;-63
2023/08/31 03:54:42;;;;;;;;;;;;;;;18.08;72.07;95858.13;5077200;28;20388;-64
2023/08/31 03:57:09;;;;;;;;;;;;;;;18.09;71.79;95858.00;5077038;28;20432;-64
2023/08/31 03:59:37;;;;;;;;;;;;;;;18.05;72.10;95851.28;5077117;28;19932;-64
2023/08/31 04:02:05;;;;;;;;;;;;;;;18.06;72.25;95847.66;5077084;28;20011;-64
2023/08/31 04:04:32;;;;;;;;;;;;;;;18.03;72.12;95856.69;5076988;28;19930;-64
2023/08/31 04:06:58;;;;;;;;;;;;;;;18.09;72.96;95859.81;5076854;28;19978;-63
2023/08/31 04:09:25;;;;;;;;;;;;;;;18.10;72.98;95856.22;5076828;28;19931;-64
2023/08/31 04:11:52;;;;;;;;;;;;;;;18.12;73.13;95867.56;5076551;28;19928;-63
2023/08/31 04:14:19;;;;;;;;;;;;;;;18.12;72.88;95873.66;5076732;28;19971;-64
2023/08/31 04:16:50;;;;;;;;;;;;;;;18.15;73.03;95880.53;5076713;28;19924;-64
2023/08/31 04:19:17;;;;;;;;;;;;;;;18.25;72.89;95885.94;5076777;28;20282;-64
2023/08/31 04:21:44;;;;;;;;;;;;;;;18.37;72.46;95882.31;5076657;28;20370;-63
2023/08/31 04:24:10;;;;;;;;;;;;;;;18.51;72.08;95888.31;5076333;28;20475;-64
2023/08/31 04:26:38;;;;;;;;;;;;;;;18.63;71.64;95892.59;5076581;28;19925;-63
2023/08/31 04:29:05;;;;;;;;;;;;;;;18.78;71.52;95897.63;5076388;28;19946;-64
2023/08/31 04:31:32;;;;;;;;;;;;;;;18.99;71.11;95899.47;5076475;28;19928;-64
2023/08/31 04:34:01;;;;;;;;;;;;;;;19.23;70.42;95907.22;5076424;28;19964;-64
2023/08/31 04:36:27;;;;;;;;;;;;;;;19.63;68.78;95902.19;5076363;28;19931;-64
2023/08/31 04:38:54;;;;;;;;;;;;;;;19.96;67.64;95910.88;5076330;28;20010;-64
2023/08/31 04:41:21;;;;;;;;;;;;;;;20.11;66.66;95907.91;5076159;28;20378;-64
2023/08/31 04:43:48;;;;;;;;;;;;;;;20.25;66.14;95917.28;5076263;28;20347;-64
2023/08/31 04:46:15;;;;;;;;;;;;;;;20.36;65.57;95916.38;5076092;28;20328;-64
2023/08/31 04:48:42;;;;;;;;;;;;;;;20.50;65.70;95913.31;5076012;28;19931;-64
2023/08/31 04:51:27;;;;;;;;;;;;;;;20.64;65.27;95919.22;5076095;28;19924;-65
2023/08/31 04:53:54;;;;;;;;;;;;;;;21.07;65.12;95917.25;5076104;28;19931;-64
2023/08/31 04:56:21;;;;;;;;;;;;;;;21.51;63.25;95921.25;5075642;28;19925;-64
2023/08/31 04:58:48;;;;;;;;;;;;;;;21.66;62.29;95925.16;5075735;28;20399;-64
2023/08/31 05:01:15;;;;;;;;;;;;;;;21.66;62.08;95926.97;5075951;28;19932;-65
2023/08/31 05:03:42;;;;;;;;;;;;;;;21.63;62.06;95937.91;5075857;28;19987;-64
2023/08/31 05:06:09;;;;;;;;;;;;;;;21.55;62.28;95930.66;5075710;28;19925;-64
2023/08/31 05:08:38;;;;;;;;;;;;;;;21.59;63.14;95932.03;5075715;28;19931;-64
2023/08/31 05:11:05;;;;;;;;;;;;;;;21.78;62.84;95933.00;5075424;28;20473;-64
2023/08/31 05:13:32;;;;;;;;;;;;;;;21.79;62.53;95930.19;5075785;28;19947;-63
2023/08/31 05:15:59;;;;;;;;;;;;;;;21.84;62.90;95941.28;5075711;28;19925;-64
2023/08/31 05:18:26;;;;;;;;;;;;;;;22.43;62.15;95942.06;5075615;28;20023;-65
2023/08/31 05:20:53;;;;;;;;;;;;;;;23.25;60.02;95945.78;5075587;28;19924;-64
2023/08/31 05:23:20;;;;;;;;;;;;;;;24.16;58.29;95956.34;5075763;28;19928;-65
2023/08/31 05:25:48;;;;;;;;;;;;;;;25.12;55.93;95950.91;5075398;28;20370;-64
2023/08/31 05:28:15;;;;;;;;;;;;;;;25.95;53.11;95950.94;5075358;28;19950;-65
2023/08/31 05:30:48;;;;;;;;;;;;;;;26.33;51.72;95950.38;5075394;28;20019;-64
2023/08/31 05:33:18;;;;;;;;;;;;;;;26.72;50.75;95946.03;5075387;28;19932;-64
2023/08/31 05:35:45;;;;;;;;;;;;;;;26.95;50.32;95939.91;5075342;28;19924;-64
2023/08/31 05:38:12;;;;;;;;;;;;;;;27.38;49.62;95942.16;5075267;28;19924;-64
2023/08/31 05:40:39;;;;;;;;;;;;;;;28.09;48.46;95950.13;5075262;28;20007;-65
2023/08/31 05:43:08;;;;;;;;;;;;;;;28.67;47.29;95949.50;5075071;28;19985;-65
2023/08/31 05:45:35;;;;;;;;;;;;;;;29.27;45.52;95948.56;5074996;28;19925;-65
2023/08/31 05:48:02;;;;;;;;;;;;;;;29.84;43.71;95942.47;5074961;28;19928;-65
2023/08/31 05:50:29;;;;;;;;;;;;;;;30.38;42.42;95946.41;5074909;28;19925;-65
2023/08/31 05:52:56;;;;;;;;;;;;;;;30.87;40.84;95941.03;5075011;28;19924;-65
2023/08/31 05:55:23;;;;;;;;;;;;;;;31.20;39.69;95950.28;5074959;28;20332;-65
2023/08/31 05:57:50;;;;;;;;;;;;;;;31.54;40.54;95939.53;5074794;28;20437;-65
2023/08/31 06:00:19;;;;;;;;;;;;;;;31.84;39.95;95954.53;5074822;28;19924;-66
2023/08/31 06:02:45;;;;;;;;;;;;;;;32.05;39.13;95949.97;5074671;28;19984;-65
2023/08/31 06:05:16;;;;;;;;;;;;;;;32.32;39.47;95958.06;5074580;28;19925;-66
2023/08/31 06:07:43;;;;;;;;;;;;;;;32.53;38.60;95957.81;5074658;28;19925;-65
2023/08/31 06:10:10;;;;;;;;;;;;;;;32.72;37.69;95954.44;5074499;28;20386;-65
2023/08/31 06:12:37;;;;;;;;;;;;;;;32.83;36.32;95953.75;5074272;28;20004;-66
2023/08/31 06:15:05;;;;;;;;;;;;;;;32.95;36.17;95961.22;5074467;28;19929;-66
2023/08/31 06:17:36;;;;;;;;;;;;;;;33.11;36.08;95968.84;5074633;28;19925;-66
2023/08/31 06:20:05;;;;;;;;;;;;;;;33.23;36.38;95966.28;5074275;28;19979;-65
2023/08/31 06:22:31;;;;;;;;;;;;;;;33.33;35.08;95968.53;5074486;28;19932;-66
2023/08/31 06:24:58;;;;;;;;;;;;;;;33.40;34.03;95965.78;5074268;28;19924;-66
2023/08/31 06:27:25;;;;;;;;;;;;;;;33.46;33.53;95964.06;5074199;28;19932;-66
2023/08/31 06:29:52;;;;;;;;;;;;;;;33.62;33.79;95969.00;5074181;28;19979;-66
2023/08/31 06:32:19;;;;;;;;;;;;;;;33.81;33.08;95968.25;5074049;28;20390;-66
2023/08/31 06:34:47;;;;;;;;;;;;;;;33.62;33.09;95968.19;5074050;28;19978;-66
2023/08/31 06:37:14;;;;;;;;;;;;;;;33.43;33.91;95968.06;5074074;28;19935;-66
2023/08/31 06:39:41;;;;;;;;;;;;;;;33.59;33.35;95974.84;5074017;28;19970;-66
2023/08/31 06:42:08;;;;;;;;;;;;;;;33.72;33.63;95973.09;5073862;28;19924;-65
2023/08/31 06:44:35;;;;;;;;;;;;;;;33.87;32.02;95981.75;5073836;28;20456;-66
2023/08/31 06:47:03;;;;;;;;;;;;;;;33.95;32.32;95974.41;5073943;28;19951;-65
2023/08/31 06:49:32;;;;;;;;;;;;;;;33.85;31.79;95970.28;5073956;28;20106;-66
2023/08/31 06:52:02;;;;;;;;;;;;;;;33.69;32.20;95976.25;5073934;28;20324;-66
2023/08/31 06:54:29;;;;;;;;;;;;;;;33.92;31.67;95970.25;5073758;28;19925;-66
2023/08/31 06:56:56;;;;;;;;;;;;;;;34.20;31.20;95971.69;5073802;28;19928;-66
2023/08/31 06:59:26;;;;;;;;;;;;;;;34.50;31.49;95981.84;5073994;28;20278;-66
2023/08/31 07:01:53;;;;;;;;;;;;;;;34.51;30.44;95986.22;5073623;28;19931;-66
2023/08/31 07:04:19;;;;;;;;;;;;;;;34.79;30.09;95982.16;5073579;28;19971;-66
2023/08/31 07:06:46;;;;;;;;;;;;;;;35.13;30.24;95981.75;5073679;28;19925;-66
2023/08/31 07:09:14;;;;;;;;;;;;;;;34.85;28.50;95980.41;5073635;28;19925;-66
2023/08/31 07:11:41;;;;;;;;;;;;;;;34.66;29.67;95980.44;5073299;28;20336;-65
2023/08/31 07:14:08;;;;;;;;;;;;;;;34.65;29.55;95983.34;5073590;28;19978;-67
2023/08/31 07:16:35;;;;;;;;;;;;;;;34.64;29.34;95982.50;5073662;28;19978;-66
2023/08/31 07:19:02;;;;;;;;;;;;;;;34.57;28.76;95980.91;5073639;28;19928;-66
2023/08/31 07:21:29;;;;;;;;;;;;;;;34.67;30.10;95981.25;5073009;28;19950;-66
2023/08/31 07:23:57;;;;;;;;;;;;;;;34.83;29.03;95985.25;5073440;28;19935;-65
2023/08/31 07:26:25;;;;;;;;;;;;;;;35.00;27.87;95992.81;5073278;28;19931;-66
2023/08/31 07:28:51;;;;;;;;;;;;;;;35.25;28.75;95990.00;5073375;28;19929;-67
2023/08/31 07:31:18;;;;;;;;;;;;;;;35.49;28.13;95994.69;5073239;28;20313;-67
2023/08/31 07:33:45;;;;;;;;;;;;;;;35.76;27.72;95997.03;5073229;28;20301;-66
2023/08/31 07:36:12;;;;;;;;;;;;;;;36.06;27.15;95998.88;5073355;28;19976;-66
2023/08/31 07:38:39;;;;;;;;;;;;;;;36.15;26.25;96000.16;5073274;28;19978;-66
2023/08/31 07:41:06;;;;;;;;;;;;;;;36.21;26.20;95992.16;5073449;28;19978;-66
2023/08/31 07:43:34;;;;;;;;;;;;;;;36.42;25.57;95996.19;5073307;28;19940;-66
2023/08/31 07:46:00;;;;;;;;;;;;;;;36.56;25.90;95995.94;5073361;28;19925;-67
2023/08/31 07:48:27;;;;;;;;;;;;;;;36.83;26.30;96007.16;5073392;28;19924;-66
2023/08/31 07:50:54;;;;;;;;;;;;;;;36.98;25.35;96000.38;5073221;28;19938;-66
2023/08/31 07:53:20;;;;;;;;;;;;;;;37.09;25.85;95994.06;5073205;28;20007;-67
2023/08/31 07:55:55;;;;;;;;;;;;;;;36.86;26.59;96003.97;5073144;28;19924;-66
2023/08/31 07:58:22;;;;;;;;;;;;;;;36.46;25.95;95986.47;5073126;28;19925;-67
2023/08/31 08:00:50;;;;;;;;;;;;;;;36.15;27.14;95988.47;5073126;28;19925;-66
2023/08/31 08:03:17;;;;;;;;;;;;;;;36.13;26.45;95994.13;5073180;28;19978;-66
2023/08/31 08:05:43;;;;;;;;;;;;;;;36.12;24.79;95994.38;5072947;28;19975;-66
2023/08/31 08:08:11;;;;;;;;;;;;;;;36.06;26.02;95987.97;5073176;28;19990;-66
2023/08/31 08:10:38;;;;;;;;;;;;;;;36.14;25.54;95994.94;5073105;28;20340;-65
2023/08/31 08:13:05;;;;;;;;;;;;;;;36.14;24.59;95987.63;5072877;28;19932;-66
2023/08/31 08:15:31;;;;;;;;;;;;;;;36.28;23.80;95984.69;5073020;28;19966;-66
2023/08/31 08:18:00;;;;;;;;;;;;;;;36.38;23.09;95987.66;5073031;28;20340;-67
2023/08/31 08:20:27;;;;;;;;;;;;;;;35.86;25.50;95986.41;5072942;28;19928;-66
2023/08/31 08:22:55;;;;;;;;;;;;;;;35.78;25.06;95967.69;5072854;28;19956;-66
2023/08/31 08:25:22;;;;;;;;;;;;;;;35.86;25.15;95972.81;5072828;28;19925;-66
2023/08/31 08:27:50;;;;;;;;;;;;;;;35.65;24.43;95985.88;5072871;28;20007;-66
2023/08/31 08:30:16;;;;;;;;;;;;;;;35.00;24.45;95977.31;5072800;28;19924;-65
2023/08/31 08:32:43;;;;;;;;;;;;;;;34.44;26.17;95974.59;5074572;28;19925;-66
2023/08/31 08:35:11;;;;;;;;;;;;;;;34.64;27.08;95968.94;5076744;28;19928;-65
2023/08/31 08:37:38;;;;;;;;;;;;;;;34.86;26.57;95982.09;5076493;28;20435;-66
2023/08/31 08:40:06;;;;;;;;;;;;;;;34.77;26.55;95970.72;5076266;28;20385;-66
2023/08/31 08:42:35;;;;;;;;;;;;;;;34.73;26.70;95977.63;5076197;28;20382;-66
2023/08/31 08:45:03;;;;;;;;;;;;;;;34.56;26.98;95971.97;5076172;28;19971;-65
2023/08/31 08:47:29;;;;;;;;;;;;;;;34.39;26.55;95971.72;5076191;28;19932;-66
2023/08/31 08:49:57;;;;;;;;;;;;;;;33.86;27.83;95973.84;5076116;28;19951;-65
2023/08/31 08:52:27;;;;;;;;;;;;;;;34.08;28.53;95982.41;5076099;28;20011;-65
2023/08/31 08:54:53;;;;;;;;;;;;;;;34.32;28.04;95981.81;5076192;28;19971;-66
2023/08/31 08:57:20;;;;;;;;;;;;;;;34.55;27.97;95989.28;5076100;28;19925;-66
2023/08/31 08:59:47;;;;;;;;;;;;;;;34.94;26.77;95988.28;5076043;28;19967;-66
2023/08/31 09:02:13;;;;;;;;;;;;;;;35.24;25.99;95977.44;5076053;28;19924;-66
2023/08/31 09:04:40;;;;;;;;;;;;;;;35.31;25.76;95981.97;5075815;28;20019;-66
2023/08/31 09:07:07;;;;;;;;;;;;;;;34.86;27.19;95975.81;5075606;28;20404;-66
2023/08/31 09:21:48;;;;;;;;;;;;;;;34.77;27.76;95980.75;5072644;28;20073;-66
2023/08/31 09:33:38;;;;;;;;;;;;;;;34.23;28.24;95970.41;5075768;28;19927;-65
2023/08/31 09:36:07;;;;;;;;;;;;;;;34.29;27.67;95978.47;5075618;28;19970;-66
2023/08/31 09:50:47;;;;;;;;;;;;;;;33.95;28.07;95960.84;5075435;28;20017;-66
2023/08/31 10:11:32;;;;;;;;;;;;;;;30.08;32.47;95989.72;5074994;28;19927;-65
2023/08/31 10:13:59;;;;;;;;;;;;;;;29.45;33.67;95998.44;5074529;28;20382;-65
2023/08/31 10:16:26;;;;;;;;;;;;;;;29.33;33.82;96011.56;5074410;28;19978;-65
2023/08/31 10:18:53;;;;;;;;;;;;;;;29.14;34.84;96011.97;5074482;28;19931;-65
2023/08/31 10:21:20;;;;;;;;;;;;;;;28.76;36.63;96018.34;5074200;28;19925;-65
2023/08/31 10:23:47;;;;;;;;;;;;;;;28.35;38.31;96008.84;5074335;28;19928;-64
2023/08/31 10:26:23;;;;;;;;;;;;;;;27.97;39.06;96014.22;5074306;28;19924;-65
2023/08/31 10:28:52;;;;;;;;;;;;;;;27.66;40.04;96015.16;5074280;28;19924;-65
2023/08/31 10:31:19;;;;;;;;;;;;;;;27.27;40.02;96024.94;5074283;28;19971;-65
2023/08/31 10:33:47;;;;;;;;;;;;;;;26.96;40.23;96019.34;5074171;28;20305;-65
2023/08/31 10:36:14;;;;;;;;;;;;;;;26.79;41.24;96026.63;5074084;28;19924;-65
2023/08/31 10:38:41;;;;;;;;;;;;;;;26.63;42.30;96016.78;5074096;28;19968;-64
2023/08/31 10:41:21;;;;;;;;;;;;;;;26.63;42.60;96008.75;5074075;28;19924;-65
2023/08/31 10:43:49;;;;;;;;;;;;;;;26.86;42.60;96010.69;5073983;28;19929;-65
2023/08/31 10:46:18;;;;;;;;;;;;;;;27.15;44.10;96011.09;5073900;28;19924;-64
2023/08/31 10:48:50;;;;;;;;;;;;;;;27.38;43.78;96014.63;5073993;28;19970;-65
2023/08/31 10:51:18;;;;;;;;;;;;;;;27.40;41.51;96003.72;5073827;28;19933;-65
2023/08/31 10:53:46;;;;;;;;;;;;;;;27.18;42.29;96008.06;5073848;28;19925;-65
2023/08/31 10:56:13;;;;;;;;;;;;;;;27.06;42.20;96013.78;5073328;28;19947;-65
2023/08/31 10:58:40;;;;;;;;;;;;;;;27.04;43.16;96015.84;5073837;28;19931;-65
2023/08/31 11:01:07;;;;;;;;;;;;;;;27.18;43.26;96018.78;5073651;28;20023;-65
2023/08/31 11:03:55;;;;;;;;;;;;;;;26.84;44.30;96012.69;5073693;28;19926;-65
2023/08/31 11:06:24;;;;;;;;;;;;;;;26.71;44.31;96006.06;5073449;28;20023;-65
2023/08/31 11:08:51;;;;;;;;;;;;;;;26.61;45.78;96016.16;5073064;28;19982;-66
2023/08/31 11:11:20;;;;;;;;;;;;;;;26.60;45.59;96009.94;5073483;28;19928;-65
2023/08/31 11:13:47;;;;;;;;;;;;;;;26.57;45.28;96017.47;5073556;28;19928;-64
2023/08/31 11:16:16;;;;;;;;;;;;;;;26.61;44.36;96014.28;5072835;28;20147;-64
2023/08/31 11:18:45;;;;;;;;;;;;;;;26.89;44.90;96002.28;5073678;28;20037;-65
2023/08/31 11:21:12;;;;;;;;;;;;;;;27.08;43.67;95998.38;5073315;28;19926;-65
2023/08/31 11:23:39;;;;;;;;;;;;;;;27.09;44.36;95997.34;5073490;28;19925;-65
2023/08/31 11:26:06;;;;;;;;;;;;;;;27.01;45.16;95984.00;5073365;28;20007;-65
2023/08/31 11:28:34;;;;;;;;;;;;;;;26.91;45.46;95983.34;5073491;28;19925;-65
2023/08/31 11:31:00;;;;;;;;;;;;;;;26.95;45.89;95987.34;5073250;28;19931;-65
2023/08/31 11:33:32;;;;;;;;;;;;;;;26.95;45.33;95980.13;5073458;28;19924;-65
2023/08/31 11:36:01;;;;;;;;;;;;;;;27.14;44.80;95979.91;5073522;28;19928;-65
2023/08/31 11:38:27;;;;;;;;;;;;;;;27.30;43.51;95969.03;5073320;28;19932;-65
2023/08/31 11:40:57;;;;;;;;;;;;;;;27.58;44.40;95971.22;5073366;28;21170;-65
2023/08/31 11:43:24;;;;;;;;;;;;;;;27.94;43.66;95966.22;5073159;28;20444;-65
2023/08/31 11:45:51;;;;;;;;;;;;;;;28.17;43.10;95976.09;5073026;28;19925;-65
2023/08/31 11:48:18;;;;;;;;;;;;;;;28.33;42.13;95975.97;5073195;28;19925;-64
2023/08/31 11:50:45;;;;;;;;;;;;;;;28.15;41.99;95975.44;5073207;28;19925;-65
2023/08/31 11:53:14;;;;;;;;;;;;;;;27.97;42.95;95971.25;5073044;28;19924;-65
2023/08/31 11:55:50;;;;;;;;;;;;;;;27.95;43.30;95975.94;5073183;28;19925;-66
2023/08/31 11:58:17;;;;;;;;;;;;;;;27.79;43.07;95980.47;5073207;28;19925;-65
2023/08/31 12:00:44;;;;;;;;;;;;;;;27.71;43.58;95976.00;5073101;28;19931;-65
2023/08/31 12:03:10;;;;;;;;;;;;;;;27.54;45.08;95974.44;5073036;28;19971;-65
2023/08/31 12:05:46;;;;;;;;;;;;;;;27.44;45.53;95970.13;5073108;28;19971;-65
2023/08/31 12:08:14;;;;;;;;;;;;;;;27.50;45.44;95972.09;5076990;28;19986;-65
2023/08/31 12:10:41;;;;;;;;;;;;;;;27.54;45.40;95969.06;5076897;28;19928;-65
2023/08/31 12:13:12;;;;;;;;;;;;;;;27.65;45.29;95970.50;5076869;28;19978;-65
2023/08/31 12:15:39;;;;;;;;;;;;;;;27.95;45.31;95966.06;5076790;28;20023;-66
2023/08/31 12:18:09;;;;;;;;;;;;;;;28.13;45.25;95963.03;5076793;28;20023;-65
2023/08/31 12:20:43;;;;;;;;;;;;;;;28.35;46.31;95967.72;5076452;28;20396;-65
2023/08/31 12:23:10;;;;;;;;;;;;;;;28.43;45.58;95967.59;5076721;28;19924;-65
2023/08/31 12:25:38;;;;;;;;;;;;;;;28.00;45.68;95973.56;5076731;28;19924;-65
2023/08/31 12:28:05;;;;;;;;;;;;;;;27.72;46.76;95966.91;5076530;28;19930;-65
2023/08/31 12:30:32;;;;;;;;;;;;;;;27.57;45.63;95977.56;5076571;28;19930;-65
2023/08/31 12:32:59;;;;;;;;;;;;;;;27.53;45.37;95970.06;5076553;28;19978;-65
2023/08/31 12:35:26;;;;;;;;;;;;;;;27.49;45.56;95972.28;5076639;28;19924;-66
2023/08/31 12:37:52;;;;;;;;;;;;;;;27.44;46.52;95971.97;5076475;28;19925;-65
2023/08/31 12:40:20;;;;;;;;;;;;;;;27.44;45.63;95978.19;5076323;28;19932;-65
2023/08/31 12:42:48;;;;;;;;;;;;;;;27.38;45.55;95979.75;5076426;28;19964;-65
2023/08/31 12:45:15;;;;;;;;;;;;;;;27.27;46.12;95974.75;5076331;28;19983;-66
2023/08/31 12:47:41;;;;;;;;;;;;;;;27.20;46.26;95969.28;5076026;28;20382;-65
2023/08/31 12:50:08;;;;;;;;;;;;;;;27.05;46.13;95979.94;5076329;28;19924;-65
2023/08/31 12:52:35;;;;;;;;;;;;;;;26.94;46.92;95983.81;5076075;28;20358;-65
2023/08/31 12:55:02;;;;;;;;;;;;;;;26.83;47.07;95982.38;5076003;28;19977;-65
2023/08/31 12:57:30;;;;;;;;;;;;;;;26.78;47.91;95989.28;5075998;28;20374;-65
2023/08/31 12:59:58;;;;;;;;;;;;;;;26.65;47.51;95987.13;5075967;28;19931;-65
2023/08/31 13:02:25;;;;;;;;;;;;;;;26.58;47.59;95993.19;5076106;28;19931;-65
2023/08/31 13:04:52;;;;;;;;;;;;;;;26.45;46.63;95992.88;5075833;28;20532;-64
2023/08/31 13:07:19;;;;;;;;;;;;;;;26.34;46.32;95986.06;5075762;28;19928;-65
2023/08/31 13:09:45;;;;;;;;;;;;;;;26.35;45.19;95985.03;5075824;28;19924;-65
2023/08/31 13:12:12;;;;;;;;;;;;;;;26.39;45.41;95983.69;5075771;28;20370;-65
2023/08/31 13:14:39;;;;;;;;;;;;;;;26.34;44.91;95986.06;5075674;28;20423;-65
2023/08/31 13:17:08;;;;;;;;;;;;;;;26.36;45.24;95979.50;5075644;28;20430;-65
2023/08/31 13:19:34;;;;;;;;;;;;;;;26.44;46.32;95983.19;5075130;28;19925;-65
2023/08/31 13:22:01;;;;;;;;;;;;;;;26.49;44.90;95987.00;5075482;28;19925;-65
2023/08/31 13:24:28;;;;;;;;;;;;;;;26.53;44.58;95995.56;5075552;28;19936;-65
2023/08/31 13:26:55;;;;;;;;;;;;;;;26.52;44.21;95996.56;5075443;28;19931;-65
2023/08/31 13:29:23;;;;;;;;;;;;;;;26.57;43.93;95993.34;5075591;28;19931;-65
2023/08/31 13:31:49;;;;;;;;;;;;;;;26.53;44.30;95983.97;5075338;28;20019;-65
2023/08/31 13:34:18;;;;;;;;;;;;;;;26.58;44.36;95987.81;5075579;28;19975;-65
2023/08/31 13:36:46;;;;;;;;;;;;;;;26.53;45.03;95983.97;5075297;28;20379;-65
2023/08/31 13:39:13;;;;;;;;;;;;;;;26.58;44.92;95992.38;5075329;28;19924;-65
2023/08/31 13:41:40;;;;;;;;;;;;;;;26.59;45.09;95983.28;5075047;28;20027;-65